sensor_id;sensor_type;location;lat;lon;timestamp;temperature;humidity
67572;SHT31;54397;47.506;19.158;2023-07-13T00:01:32;26.09;67.23
67572;SHT31;54397;47.506;19.158;2023-07-13T00:04:54;25.95;68.77
67572;SHT31;54397;47.506;19.158;2023-07-13T00:08:16;25.95;69.10
67572;SHT31;54397;47.506;19.158;2023-07-13T00:11:40;25.96;68.83
67572;SHT31;54397;47.506;19.158;2023-07-13T00:15:16;25.99;69.24
67572;SHT31;54397;47.506;19.158;2023-07-13T00:18:38;25.99;69.23
67572;SHT31;54397;47.506;19.158;2023-07-13T00:21:59;25.74;67.78
67572;SHT31;54397;47.506;19.158;2023-07-13T00:25:25;25.77;67.89
67572;SHT31;54397;47.506;19.158;2023-07-13T00:28:49;25.85;67.81
67572;SHT31;54397;47.506;19.158;2023-07-13T00:32:11;25.93;67.87
67572;SHT31;54397;47.506;19.158;2023-07-13T00:35:34;25.86;67.80
67572;SHT31;54397;47.506;19.158;2023-07-13T00:39:02;25.82;67.51
67572;SHT31;54397;47.506;19.158;2023-07-13T00:42:25;25.68;68.18
67572;SHT31;54397;47.506;19.158;2023-07-13T00:49:15;25.61;67.48
67572;SHT31;54397;47.506;19.158;2023-07-13T00:52:40;25.57;66.71
67572;SHT31;54397;47.506;19.158;2023-07-13T00:56:02;25.61;66.98
67572;SHT31;54397;47.506;19.158;2023-07-13T00:59:30;25.58;66.80
67572;SHT31;54397;47.506;19.158;2023-07-13T01:02:52;25.67;66.15
67572;SHT31;54397;47.506;19.158;2023-07-13T01:06:15;25.67;65.84
67572;SHT31;54397;47.506;19.158;2023-07-13T01:09:39;25.54;65.91
67572;SHT31;54397;47.506;19.158;2023-07-13T01:13:04;25.50;65.68
67572;SHT31;54397;47.506;19.158;2023-07-13T01:16:28;25.28;66.14
67572;SHT31;54397;47.506;19.158;2023-07-13T01:19:51;25.10;66.99
67572;SHT31;54397;47.506;19.158;2023-07-13T01:23:17;25.16;67.26
67572;SHT31;54397;47.506;19.158;2023-07-13T01:26:45;25.20;67.05
67572;SHT31;54397;47.506;19.158;2023-07-13T01:30:06;25.05;67.64
67572;SHT31;54397;47.506;19.158;2023-07-13T01:33:30;25.00;67.55
67572;SHT31;54397;47.506;19.158;2023-07-13T01:36:53;24.95;68.45
67572;SHT31;54397;47.506;19.158;2023-07-13T01:40:17;24.96;68.26
67572;SHT31;54397;47.506;19.158;2023-07-13T01:43:42;24.93;68.18
67572;SHT31;54397;47.506;19.158;2023-07-13T01:47:04;24.89;68.38
67572;SHT31;54397;47.506;19.158;2023-07-13T01:50:28;24.88;68.59
67572;SHT31;54397;47.506;19.158;2023-07-13T01:53:52;24.92;68.43
67572;SHT31;54397;47.506;19.158;2023-07-13T01:57:16;24.83;68.37
67572;SHT31;54397;47.506;19.158;2023-07-13T02:00:37;24.92;68.65
67572;SHT31;54397;47.506;19.158;2023-07-13T02:03:59;24.93;68.80
67572;SHT31;54397;47.506;19.158;2023-07-13T02:07:23;24.88;68.96
67572;SHT31;54397;47.506;19.158;2023-07-13T02:10:45;24.82;69.03
67572;SHT31;54397;47.506;19.158;2023-07-13T02:14:09;24.79;69.57
67572;SHT31;54397;47.506;19.158;2023-07-13T02:17:31;24.42;70.50
67572;SHT31;54397;47.506;19.158;2023-07-13T02:20:53;24.42;70.60
67572;SHT31;54397;47.506;19.158;2023-07-13T02:24:15;24.57;70.14
67572;SHT31;54397;47.506;19.158;2023-07-13T02:27:41;24.65;70.11
67572;SHT31;54397;47.506;19.158;2023-07-13T02:31:10;24.68;70.03
67572;SHT31;54397;47.506;19.158;2023-07-13T02:34:35;24.73;69.91
67572;SHT31;54397;47.506;19.158;2023-07-13T02:37:56;24.65;70.10
67572;SHT31;54397;47.506;19.158;2023-07-13T02:41:18;24.40;70.83
67572;SHT31;54397;47.506;19.158;2023-07-13T02:44:40;24.20;71.46
67572;SHT31;54397;47.506;19.158;2023-07-13T02:48:01;24.34;71.42
67572;SHT31;54397;47.506;19.158;2023-07-13T02:51:26;24.27;71.68
67572;SHT31;54397;47.506;19.158;2023-07-13T02:54:48;24.28;71.85
67572;SHT31;54397;47.506;19.158;2023-07-13T02:58:14;24.35;71.84
67572;SHT31;54397;47.506;19.158;2023-07-13T03:01:38;24.41;72.06
67572;SHT31;54397;47.506;19.158;2023-07-13T03:05:00;24.35;72.38
67572;SHT31;54397;47.506;19.158;2023-07-13T03:08:28;24.24;72.69
67572;SHT31;54397;47.506;19.158;2023-07-13T03:11:54;23.96;73.70
67572;SHT31;54397;47.506;19.158;2023-07-13T03:15:21;23.77;74.70
67572;SHT31;54397;47.506;19.158;2023-07-13T03:18:46;23.44;76.21
67572;SHT31;54397;47.506;19.158;2023-07-13T03:22:08;23.31;76.77
67572;SHT31;54397;47.506;19.158;2023-07-13T03:25:30;23.34;77.17
67572;SHT31;54397;47.506;19.158;2023-07-13T03:28:54;23.51;76.78
67572;SHT31;54397;47.506;19.158;2023-07-13T03:32:16;23.72;76.03
67572;SHT31;54397;47.506;19.158;2023-07-13T03:35:40;23.94;75.49
67572;SHT31;54397;47.506;19.158;2023-07-13T03:39:04;24.06;75.05
67572;SHT31;54397;47.506;19.158;2023-07-13T03:42:30;24.20;74.32
67572;SHT31;54397;47.506;19.158;2023-07-13T03:45:51;24.31;74.42
67572;SHT31;54397;47.506;19.158;2023-07-13T03:49:15;24.32;74.44
67572;SHT31;54397;47.506;19.158;2023-07-13T03:52:37;24.37;74.59
67572;SHT31;54397;47.506;19.158;2023-07-13T03:56:01;24.32;74.64
67572;SHT31;54397;47.506;19.158;2023-07-13T03:59:25;24.35;74.67
67572;SHT31;54397;47.506;19.158;2023-07-13T04:02:47;24.35;74.77
67572;SHT31;54397;47.506;19.158;2023-07-13T04:06:19;24.41;74.99
67572;SHT31;54397;47.506;19.158;2023-07-13T04:09:45;24.40;75.10
67572;SHT31;54397;47.506;19.158;2023-07-13T04:13:07;24.30;75.65
67572;SHT31;54397;47.506;19.158;2023-07-13T04:16:31;24.16;75.76
67572;SHT31;54397;47.506;19.158;2023-07-13T04:19:53;23.77;77.17
67572;SHT31;54397;47.506;19.158;2023-07-13T04:23:18;23.83;77.05
67572;SHT31;54397;47.506;19.158;2023-07-13T04:26:42;23.99;76.74
67572;SHT31;54397;47.506;19.158;2023-07-13T04:30:04;24.16;76.17
67572;SHT31;54397;47.506;19.158;2023-07-13T04:33:27;24.28;75.78
67572;SHT31;54397;47.506;19.158;2023-07-13T04:36:49;24.45;75.26
67572;SHT31;54397;47.506;19.158;2023-07-13T04:40:13;24.47;75.17
67572;SHT31;54397;47.506;19.158;2023-07-13T04:43:37;24.38;75.29
67572;SHT31;54397;47.506;19.158;2023-07-13T04:47:01;24.06;76.66
67572;SHT31;54397;47.506;19.158;2023-07-13T04:50:23;23.87;77.19
67572;SHT31;54397;47.506;19.158;2023-07-13T04:53:44;23.89;76.76
67572;SHT31;54397;47.506;19.158;2023-07-13T04:57:06;23.99;76.78
67572;SHT31;54397;47.506;19.158;2023-07-13T05:00:29;23.55;78.57
67572;SHT31;54397;47.506;19.158;2023-07-13T05:03:51;23.66;78.64
67572;SHT31;54397;47.506;19.158;2023-07-13T05:07:21;23.79;78.61
67572;SHT31;54397;47.506;19.158;2023-07-13T05:10:43;23.37;79.07
67572;SHT31;54397;47.506;19.158;2023-07-13T05:14:05;23.10;80.45
67572;SHT31;54397;47.506;19.158;2023-07-13T05:17:26;23.01;80.46
67572;SHT31;54397;47.506;19.158;2023-07-13T05:20:57;22.86;81.17
67572;SHT31;54397;47.506;19.158;2023-07-13T05:24:19;22.71;82.13
67572;SHT31;54397;47.506;19.158;2023-07-13T05:27:46;22.63;81.93
67572;SHT31;54397;47.506;19.158;2023-07-13T05:31:09;22.63;80.98
67572;SHT31;54397;47.506;19.158;2023-07-13T05:34:33;22.29;82.86
67572;SHT31;54397;47.506;19.158;2023-07-13T05:37:58;22.28;83.18
67572;SHT31;54397;47.506;19.158;2023-07-13T05:41:24;21.91;83.47
67572;SHT31;54397;47.506;19.158;2023-07-13T05:44:48;21.81;83.93
67572;SHT31;54397;47.506;19.158;2023-07-13T05:48:15;21.64;83.80
67572;SHT31;54397;47.506;19.158;2023-07-13T05:51:39;21.68;83.80
67572;SHT31;54397;47.506;19.158;2023-07-13T05:55:03;21.57;83.76
67572;SHT31;54397;47.506;19.158;2023-07-13T05:58:25;21.94;84.13
67572;SHT31;54397;47.506;19.158;2023-07-13T06:01:49;22.31;82.10
67572;SHT31;54397;47.506;19.158;2023-07-13T06:05:13;22.11;82.22
67572;SHT31;54397;47.506;19.158;2023-07-13T06:08:40;21.71;81.81
67572;SHT31;54397;47.506;19.158;2023-07-13T06:12:02;22.12;82.09
67572;SHT31;54397;47.506;19.158;2023-07-13T06:15:26;22.38;81.39
67572;SHT31;54397;47.506;19.158;2023-07-13T06:18:48;22.29;80.92
67572;SHT31;54397;47.506;19.158;2023-07-13T06:22:12;22.04;81.38
67572;SHT31;54397;47.506;19.158;2023-07-13T06:25:36;21.77;82.86
67572;SHT31;54397;47.506;19.158;2023-07-13T06:28:57;21.70;82.97
67572;SHT31;54397;47.506;19.158;2023-07-13T06:32:19;22.12;82.03
67572;SHT31;54397;47.506;19.158;2023-07-13T06:35:41;22.69;78.93
67572;SHT31;54397;47.506;19.158;2023-07-13T06:39:02;22.88;78.09
67572;SHT31;54397;47.506;19.158;2023-07-13T06:42:27;22.70;79.35
67572;SHT31;54397;47.506;19.158;2023-07-13T06:45:48;22.91;78.11
67572;SHT31;54397;47.506;19.158;2023-07-13T06:49:11;23.44;76.54
67572;SHT31;54397;47.506;19.158;2023-07-13T06:52:35;23.72;75.41
67572;SHT31;54397;47.506;19.158;2023-07-13T06:55:58;23.99;74.90
67572;SHT31;54397;47.506;19.158;2023-07-13T06:59:20;23.58;76.41
67572;SHT31;54397;47.506;19.158;2023-07-13T07:02:42;23.46;77.73
67572;SHT31;54397;47.506;19.158;2023-07-13T07:06:25;23.28;78.07
67572;SHT31;54397;47.506;19.158;2023-07-13T07:09:46;23.49;78.47
67572;SHT31;54397;47.506;19.158;2023-07-13T07:13:08;23.67;78.84
67572;SHT31;54397;47.506;19.158;2023-07-13T07:16:32;23.89;77.27
67572;SHT31;54397;47.506;19.158;2023-07-13T07:19:56;24.48;75.98
67572;SHT31;54397;47.506;19.158;2023-07-13T07:23:17;24.59;75.73
67572;SHT31;54397;47.506;19.158;2023-07-13T07:26:42;24.55;75.63
67572;SHT31;54397;47.506;19.158;2023-07-13T07:30:07;24.71;73.15
67572;SHT31;54397;47.506;19.158;2023-07-13T07:33:33;24.37;75.52
67572;SHT31;54397;47.506;19.158;2023-07-13T07:36:59;24.65;73.34
67572;SHT31;54397;47.506;19.158;2023-07-13T07:40:25;25.02;72.81
67572;SHT31;54397;47.506;19.158;2023-07-13T07:44:08;24.04;74.53
67572;SHT31;54397;47.506;19.158;2023-07-13T07:47:31;24.13;73.79
67572;SHT31;54397;47.506;19.158;2023-07-13T07:50:53;24.49;73.24
67572;SHT31;54397;47.506;19.158;2023-07-13T07:54:19;25.00;72.02
67572;SHT31;54397;47.506;19.158;2023-07-13T07:58:04;25.05;69.86
67572;SHT31;54397;47.506;19.158;2023-07-13T08:01:49;24.52;72.47
67572;SHT31;54397;47.506;19.158;2023-07-13T08:05:16;24.92;70.35
67572;SHT31;54397;47.506;19.158;2023-07-13T08:08:41;25.10;69.69
67572;SHT31;54397;47.506;19.158;2023-07-13T08:12:05;25.05;69.33
67572;SHT31;54397;47.506;19.158;2023-07-13T08:15:32;25.67;69.92
67572;SHT31;54397;47.506;19.158;2023-07-13T08:18:56;25.64;68.89
67572;SHT31;54397;47.506;19.158;2023-07-13T08:22:18;25.77;68.71
67572;SHT31;54397;47.506;19.158;2023-07-13T08:25:40;25.75;68.75
67572;SHT31;54397;47.506;19.158;2023-07-13T08:29:01;26.23;67.55
67572;SHT31;54397;47.506;19.158;2023-07-13T08:32:24;26.30;67.17
67572;SHT31;54397;47.506;19.158;2023-07-13T08:35:46;26.39;67.71
67572;SHT31;54397;47.506;19.158;2023-07-13T08:39:13;26.95;66.77
67572;SHT31;54397;47.506;19.158;2023-07-13T08:42:46;27.08;63.69
67572;SHT31;54397;47.506;19.158;2023-07-13T08:46:21;26.71;65.28
67572;SHT31;54397;47.506;19.158;2023-07-13T08:49:49;27.62;63.77
67572;SHT31;54397;47.506;19.158;2023-07-13T08:53:12;28.25;62.58
67572;SHT31;54397;47.506;19.158;2023-07-13T08:56:35;28.87;60.73
67572;SHT31;54397;47.506;19.158;2023-07-13T08:59:57;28.58;59.99
67572;SHT31;54397;47.506;19.158;2023-07-13T09:03:29;28.19;60.03
67572;SHT31;54397;47.506;19.158;2023-07-13T09:10:20;27.67;61.69
67572;SHT31;54397;47.506;19.158;2023-07-13T09:17:35;27.39;63.20
67572;SHT31;54397;47.506;19.158;2023-07-13T09:24:57;27.74;62.35
67572;SHT31;54397;47.506;19.158;2023-07-13T09:28:34;27.97;61.01
67572;SHT31;54397;47.506;19.158;2023-07-13T09:32:01;27.43;61.40
67572;SHT31;54397;47.506;19.158;2023-07-13T09:35:28;27.47;62.39
67572;SHT31;54397;47.506;19.158;2023-07-13T09:39:02;27.76;60.19
67572;SHT31;54397;47.506;19.158;2023-07-13T09:42:25;28.31;60.02
67572;SHT31;54397;47.506;19.158;2023-07-13T09:45:47;28.29;59.04
67572;SHT31;54397;47.506;19.158;2023-07-13T09:49:12;27.90;61.04
67572;SHT31;54397;47.506;19.158;2023-07-13T09:52:42;27.87;60.19
67572;SHT31;54397;47.506;19.158;2023-07-13T09:56:23;28.08;59.51
67572;SHT31;54397;47.506;19.158;2023-07-13T09:59:50;28.44;58.92
67572;SHT31;54397;47.506;19.158;2023-07-13T10:03:22;28.59;59.42
67572;SHT31;54397;47.506;19.158;2023-07-13T10:06:46;29.08;58.45
67572;SHT31;54397;47.506;19.158;2023-07-13T10:13:42;29.08;59.08
67572;SHT31;54397;47.506;19.158;2023-07-13T10:17:12;29.62;56.33
67572;SHT31;54397;47.506;19.158;2023-07-13T10:20:35;29.52;56.38
67572;SHT31;54397;47.506;19.158;2023-07-13T10:27:32;29.27;56.61
67572;SHT31;54397;47.506;19.158;2023-07-13T10:30:56;29.28;58.10
67572;SHT31;54397;47.506;19.158;2023-07-13T10:34:20;29.14;57.13
67572;SHT31;54397;47.506;19.158;2023-07-13T10:38:05;29.13;56.84
67572;SHT31;54397;47.506;19.158;2023-07-13T10:41:31;29.73;55.95
67572;SHT31;54397;47.506;19.158;2023-07-13T10:44:56;29.41;56.57
67572;SHT31;54397;47.506;19.158;2023-07-13T10:48:18;29.61;55.82
67572;SHT31;54397;47.506;19.158;2023-07-13T10:51:45;29.07;55.49
67572;SHT31;54397;47.506;19.158;2023-07-13T10:56:15;29.41;56.02
67572;SHT31;54397;47.506;19.158;2023-07-13T10:59:18;29.41;53.76
67572;SHT31;54397;47.506;19.158;2023-07-13T11:02:40;29.71;53.82
67572;SHT31;54397;47.506;19.158;2023-07-13T11:13:36;29.82;54.74
67572;SHT31;54397;47.506;19.158;2023-07-13T11:16:58;29.90;52.81
67572;SHT31;54397;47.506;19.158;2023-07-13T11:20:30;29.52;52.29
67572;SHT31;54397;47.506;19.158;2023-07-13T11:27:41;29.85;52.31
67572;SHT31;54397;47.506;19.158;2023-07-13T11:31:13;29.54;53.01
67572;SHT31;54397;47.506;19.158;2023-07-13T11:34:38;29.52;51.18
67572;SHT31;54397;47.506;19.158;2023-07-13T11:38:01;29.62;52.50
67572;SHT31;54397;47.506;19.158;2023-07-13T11:41:30;29.89;50.87
67572;SHT31;54397;47.506;19.158;2023-07-13T11:44:55;29.79;51.83
67572;SHT31;54397;47.506;19.158;2023-07-13T11:48:30;30.10;52.42
67572;SHT31;54397;47.506;19.158;2023-07-13T11:51:54;30.17;50.29
67572;SHT31;54397;47.506;19.158;2023-07-13T11:55:18;30.31;52.22
67572;SHT31;54397;47.506;19.158;2023-07-13T11:58:50;30.05;49.28
67572;SHT31;54397;47.506;19.158;2023-07-13T12:02:20;30.21;49.26
67572;SHT31;54397;47.506;19.158;2023-07-13T12:06:04;30.14;49.27
67572;SHT31;54397;47.506;19.158;2023-07-13T12:09:29;30.14;49.78
67572;SHT31;54397;47.506;19.158;2023-07-13T12:12:54;30.34;48.93
67572;SHT31;54397;47.506;19.158;2023-07-13T12:16:35;30.37;50.68
67572;SHT31;54397;47.506;19.158;2023-07-13T12:19:56;29.96;49.99
67572;SHT31;54397;47.506;19.158;2023-07-13T12:27:00;30.14;51.33
67572;SHT31;54397;47.506;19.158;2023-07-13T12:31:02;30.19;50.41
67572;SHT31;54397;47.506;19.158;2023-07-13T12:34:29;30.24;50.07
67572;SHT31;54397;47.506;19.158;2023-07-13T12:37:51;30.53;49.22
67572;SHT31;54397;47.506;19.158;2023-07-13T12:41:20;30.44;49.51
67572;SHT31;54397;47.506;19.158;2023-07-13T12:44:42;30.10;49.05
67572;SHT31;54397;47.506;19.158;2023-07-13T12:48:16;29.72;51.44
67572;SHT31;54397;47.506;19.158;2023-07-13T12:51:49;29.78;51.17
67572;SHT31;54397;47.506;19.158;2023-07-13T12:55:18;29.79;51.99
67572;SHT31;54397;47.506;19.158;2023-07-13T12:59:03;30.10;51.01
67572;SHT31;54397;47.506;19.158;2023-07-13T13:02:36;30.16;50.59
67572;SHT31;54397;47.506;19.158;2023-07-13T13:09:43;30.48;50.57
67572;SHT31;54397;47.506;19.158;2023-07-13T13:13:07;30.37;49.58
67572;SHT31;54397;47.506;19.158;2023-07-13T13:16:35;30.47;48.72
67572;SHT31;54397;47.506;19.158;2023-07-13T13:19:59;30.51;49.01
67572;SHT31;54397;47.506;19.158;2023-07-13T13:23:22;30.00;47.91
67572;SHT31;54397;47.506;19.158;2023-07-13T13:26:45;29.83;49.68
67572;SHT31;54397;47.506;19.158;2023-07-13T13:30:16;30.00;49.55
67572;SHT31;54397;47.506;19.158;2023-07-13T13:33:49;29.85;50.07
67572;SHT31;54397;47.506;19.158;2023-07-13T13:37:19;29.59;49.41
67572;SHT31;54397;47.506;19.158;2023-07-13T13:40:45;29.75;48.61
67572;SHT31;54397;47.506;19.158;2023-07-13T13:44:17;29.86;48.48
67572;SHT31;54397;47.506;19.158;2023-07-13T13:47:42;30.16;48.97
67572;SHT31;54397;47.506;19.158;2023-07-13T13:55:11;30.44;48.96
67572;SHT31;54397;47.506;19.158;2023-07-13T13:58:34;30.63;49.18
67572;SHT31;54397;47.506;19.158;2023-07-13T14:01:56;30.60;49.00
67572;SHT31;54397;47.506;19.158;2023-07-13T14:05:25;30.53;48.05
67572;SHT31;54397;47.506;19.158;2023-07-13T14:08:55;30.45;48.84
67572;SHT31;54397;47.506;19.158;2023-07-13T14:12:20;30.24;49.50
67572;SHT31;54397;47.506;19.158;2023-07-13T14:15:41;30.24;49.82
67572;SHT31;54397;47.506;19.158;2023-07-13T14:19:03;29.90;50.39
67572;SHT31;54397;47.506;19.158;2023-07-13T14:22:33;29.76;50.17
67572;SHT31;54397;47.506;19.158;2023-07-13T14:25:57;29.47;51.12
67572;SHT31;54397;47.506;19.158;2023-07-13T14:29:19;29.51;51.64
67572;SHT31;54397;47.506;19.158;2023-07-13T14:32:48;29.58;51.18
67572;SHT31;54397;47.506;19.158;2023-07-13T14:39:52;29.27;51.92
67572;SHT31;54397;47.506;19.158;2023-07-13T14:43:19;29.35;52.49
67572;SHT31;54397;47.506;19.158;2023-07-13T14:46:42;29.34;52.30
67572;SHT31;54397;47.506;19.158;2023-07-13T14:50:04;29.39;52.50
67572;SHT31;54397;47.506;19.158;2023-07-13T14:53:32;29.31;51.78
67572;SHT31;54397;47.506;19.158;2023-07-13T14:56:53;28.94;53.81
67572;SHT31;54397;47.506;19.158;2023-07-13T15:00:22;28.94;53.46
67572;SHT31;54397;47.506;19.158;2023-07-13T15:03:51;29.04;53.84
67572;SHT31;54397;47.506;19.158;2023-07-13T15:07:13;29.02;53.67
67572;SHT31;54397;47.506;19.158;2023-07-13T15:10:39;29.02;52.76
67572;SHT31;54397;47.506;19.158;2023-07-13T15:14:01;28.86;53.46
67572;SHT31;54397;47.506;19.158;2023-07-13T15:17:36;28.83;52.94
67572;SHT31;54397;47.506;19.158;2023-07-13T15:20:58;28.66;52.84
67572;SHT31;54397;47.506;19.158;2023-07-13T15:24:25;28.53;52.79
67572;SHT31;54397;47.506;19.158;2023-07-13T15:27:50;28.63;52.75
67572;SHT31;54397;47.506;19.158;2023-07-13T15:31:23;28.38;52.60
67572;SHT31;54397;47.506;19.158;2023-07-13T15:34:45;28.24;53.07
67572;SHT31;54397;47.506;19.158;2023-07-13T15:38:22;28.35;53.36
67572;SHT31;54397;47.506;19.158;2023-07-13T15:41:45;28.29;52.25
67572;SHT31;54397;47.506;19.158;2023-07-13T15:45:20;28.29;51.95
67572;SHT31;54397;47.506;19.158;2023-07-13T15:48:43;28.24;52.82
67572;SHT31;54397;47.506;19.158;2023-07-13T15:52:17;28.31;52.91
67572;SHT31;54397;47.506;19.158;2023-07-13T15:55:44;28.32;53.14
67572;SHT31;54397;47.506;19.158;2023-07-13T15:59:14;28.37;53.70
67572;SHT31;54397;47.506;19.158;2023-07-13T16:02:39;28.38;53.08
67572;SHT31;54397;47.506;19.158;2023-07-13T16:06:01;28.41;52.62
67572;SHT31;54397;47.506;19.158;2023-07-13T16:09:23;28.28;52.90
67572;SHT31;54397;47.506;19.158;2023-07-13T16:12:46;28.24;53.09
67572;SHT31;54397;47.506;19.158;2023-07-13T16:16:09;28.27;52.78
67572;SHT31;54397;47.506;19.158;2023-07-13T16:19:32;28.19;53.25
67572;SHT31;54397;47.506;19.158;2023-07-13T16:22:55;28.24;53.14
67572;SHT31;54397;47.506;19.158;2023-07-13T16:26:36;28.25;53.66
67572;SHT31;54397;47.506;19.158;2023-07-13T16:30:14;28.18;53.66
67572;SHT31;54397;47.506;19.158;2023-07-13T16:33:36;28.12;52.42
67572;SHT31;54397;47.506;19.158;2023-07-13T16:36:57;28.28;51.85
67572;SHT31;54397;47.506;19.158;2023-07-13T16:40:26;28.14;52.38
67572;SHT31;54397;47.506;19.158;2023-07-13T16:43:48;28.07;52.18
67572;SHT31;54397;47.506;19.158;2023-07-13T16:47:15;28.05;52.81
67572;SHT31;54397;47.506;19.158;2023-07-13T16:50:37;28.10;52.85
67572;SHT31;54397;47.506;19.158;2023-07-13T16:53:59;28.12;52.31
67572;SHT31;54397;47.506;19.158;2023-07-13T16:57:33;28.21;51.61
67572;SHT31;54397;47.506;19.158;2023-07-13T17:00:55;28.10;52.15
67572;SHT31;54397;47.506;19.158;2023-07-13T17:04:19;28.10;52.83
67572;SHT31;54397;47.506;19.158;2023-07-13T17:07:44;28.15;53.00
67572;SHT31;54397;47.506;19.158;2023-07-13T17:11:07;28.11;52.79
67572;SHT31;54397;47.506;19.158;2023-07-13T17:14:31;28.10;53.11
67572;SHT31;54397;47.506;19.158;2023-07-13T17:17:55;28.14;53.21
67572;SHT31;54397;47.506;19.158;2023-07-13T17:21:33;28.14;57.40
67572;SHT31;54397;47.506;19.158;2023-07-13T17:24:57;28.14;57.12
67572;SHT31;54397;47.506;19.158;2023-07-13T17:28:23;28.11;56.70
67572;SHT31;54397;47.506;19.158;2023-07-13T17:31:45;28.12;56.52
67572;SHT31;54397;47.506;19.158;2023-07-13T17:35:23;28.08;52.91
67572;SHT31;54397;47.506;19.158;2023-07-13T17:38:49;28.01;53.70
67572;SHT31;54397;47.506;19.158;2023-07-13T17:42:18;28.01;53.31
67572;SHT31;54397;47.506;19.158;2023-07-13T17:45:39;27.89;53.37
67572;SHT31;54397;47.506;19.158;2023-07-13T17:49:02;27.80;54.04
67572;SHT31;54397;47.506;19.158;2023-07-13T17:52:27;27.80;54.77
67572;SHT31;54397;47.506;19.158;2023-07-13T17:55:51;27.87;54.31
67572;SHT31;54397;47.506;19.158;2023-07-13T17:59:13;27.81;53.55
67572;SHT31;54397;47.506;19.158;2023-07-13T18:02:35;27.70;53.61
67572;SHT31;54397;47.506;19.158;2023-07-13T18:06:02;27.52;51.64
67572;SHT31;54397;47.506;19.158;2023-07-13T18:09:26;27.49;51.65
67572;SHT31;54397;47.506;19.158;2023-07-13T18:12:48;27.42;50.37
67572;SHT31;54397;47.506;19.158;2023-07-13T18:16:17;27.41;49.29
67572;SHT31;54397;47.506;19.158;2023-07-13T18:19:44;27.28;50.57
67572;SHT31;54397;47.506;19.158;2023-07-13T18:23:15;27.24;49.78
67572;SHT31;54397;47.506;19.158;2023-07-13T18:26:42;27.14;48.68
67572;SHT31;54397;47.506;19.158;2023-07-13T18:30:04;27.06;48.39
67572;SHT31;54397;47.506;19.158;2023-07-13T18:33:32;27.05;49.28
67572;SHT31;54397;47.506;19.158;2023-07-13T18:36:54;26.97;48.28
67572;SHT31;54397;47.506;19.158;2023-07-13T18:40:17;26.87;49.59
67572;SHT31;54397;47.506;19.158;2023-07-13T18:43:40;26.84;49.87
67572;SHT31;54397;47.506;19.158;2023-07-13T18:47:03;26.87;50.29
67572;SHT31;54397;47.506;19.158;2023-07-13T18:50:32;26.80;50.97
67572;SHT31;54397;47.506;19.158;2023-07-13T18:53:58;26.73;51.72
67572;SHT31;54397;47.506;19.158;2023-07-13T18:57:22;26.71;51.89
67572;SHT31;54397;47.506;19.158;2023-07-13T19:00:44;26.80;52.04
67572;SHT31;54397;47.506;19.158;2023-07-13T19:04:26;26.85;52.08
67572;SHT31;54397;47.506;19.158;2023-07-13T19:07:51;26.94;51.95
67572;SHT31;54397;47.506;19.158;2023-07-13T19:11:16;26.92;51.29
67572;SHT31;54397;47.506;19.158;2023-07-13T19:14:38;26.92;51.98
67572;SHT31;54397;47.506;19.158;2023-07-13T19:18:04;26.98;52.21
67572;SHT31;54397;47.506;19.158;2023-07-13T19:21:33;26.95;51.73
67572;SHT31;54397;47.506;19.158;2023-07-13T19:24:56;26.91;52.04
67572;SHT31;54397;47.506;19.158;2023-07-13T19:31:45;26.74;51.96
67572;SHT31;54397;47.506;19.158;2023-07-13T19:35:08;26.61;52.66
67572;SHT31;54397;47.506;19.158;2023-07-13T19:38:30;26.49;52.74
67572;SHT31;54397;47.506;19.158;2023-07-13T19:42:01;26.26;53.00
67572;SHT31;54397;47.506;19.158;2023-07-13T19:45:27;25.95;53.01
67572;SHT31;54397;47.506;19.158;2023-07-13T19:48:52;25.64;53.80
67572;SHT31;54397;47.506;19.158;2023-07-13T19:52:16;25.40;54.91
67572;SHT31;54397;47.506;19.158;2023-07-13T19:55:46;25.35;55.95
67572;SHT31;54397;47.506;19.158;2023-07-13T19:59:27;25.23;56.19
67572;SHT31;54397;47.506;19.158;2023-07-13T20:02:56;25.17;57.27
67572;SHT31;54397;47.506;19.158;2023-07-13T20:06:30;25.16;57.47
67572;SHT31;54397;47.506;19.158;2023-07-13T20:09:54;24.76;57.26
67572;SHT31;54397;47.506;19.158;2023-07-13T20:13:17;24.90;57.20
67572;SHT31;54397;47.506;19.158;2023-07-13T20:16:47;25.00;55.46
67572;SHT31;54397;47.506;19.158;2023-07-13T20:23:40;24.93;55.56
67572;SHT31;54397;47.506;19.158;2023-07-13T20:27:02;25.05;56.01
67572;SHT31;54397;47.506;19.158;2023-07-13T20:30:29;25.10;56.23
67572;SHT31;54397;47.506;19.158;2023-07-13T20:33:54;25.03;55.83
67572;SHT31;54397;47.506;19.158;2023-07-13T20:37:48;25.16;55.07
67572;SHT31;54397;47.506;19.158;2023-07-13T20:41:12;25.20;55.85
67572;SHT31;54397;47.506;19.158;2023-07-13T20:44:37;25.35;55.57
67572;SHT31;54397;47.506;19.158;2023-07-13T20:51:49;25.44;55.15
67572;SHT31;54397;47.506;19.158;2023-07-13T20:55:13;25.50;57.56
67572;SHT31;54397;47.506;19.158;2023-07-13T20:58:35;25.80;56.35
67572;SHT31;54397;47.506;19.158;2023-07-13T21:01:59;26.03;55.79
67572;SHT31;54397;47.506;19.158;2023-07-13T21:05:24;26.02;55.85
67572;SHT31;54397;47.506;19.158;2023-07-13T21:08:45;26.06;56.26
67572;SHT31;54397;47.506;19.158;2023-07-13T21:12:10;26.15;56.29
67572;SHT31;54397;47.506;19.158;2023-07-13T21:15:35;26.23;56.48
67572;SHT31;54397;47.506;19.158;2023-07-13T21:18:57;26.29;56.10
67572;SHT31;54397;47.506;19.158;2023-07-13T21:22:19;26.33;55.98
67572;SHT31;54397;47.506;19.158;2023-07-13T21:25:41;26.29;56.85
67572;SHT31;54397;47.506;19.158;2023-07-13T21:29:02;26.22;57.06
67572;SHT31;54397;47.506;19.158;2023-07-13T21:32:27;26.06;57.12
67572;SHT31;54397;47.506;19.158;2023-07-13T21:35:52;25.75;56.46
67572;SHT31;54397;47.506;19.158;2023-07-13T21:39:18;25.62;57.53
67572;SHT31;54397;47.506;19.158;2023-07-13T21:42:40;25.60;57.13
67572;SHT31;54397;47.506;19.158;2023-07-13T21:46:02;25.45;56.83
67572;SHT31;54397;47.506;19.158;2023-07-13T21:49:26;25.43;56.39
67572;SHT31;54397;47.506;19.158;2023-07-13T21:52:48;25.41;55.92
67572;SHT31;54397;47.506;19.158;2023-07-13T21:56:10;25.48;55.47
67572;SHT31;54397;47.506;19.158;2023-07-13T21:59:35;25.35;55.96
67572;SHT31;54397;47.506;19.158;2023-07-13T22:02:58;25.24;55.88
67572;SHT31;54397;47.506;19.158;2023-07-13T22:06:26;25.09;55.75
67572;SHT31;54397;47.506;19.158;2023-07-13T22:09:48;24.89;56.62
67572;SHT31;54397;47.506;19.158;2023-07-13T22:13:10;24.78;56.77
67572;SHT31;54397;47.506;19.158;2023-07-13T22:16:32;24.75;57.56